sensor_id;sensor_type;location;lat;lon;timestamp;P1;durP1;ratioP1;P2;durP2;ratioP2
15130;SDS011;7666;50.920;4.628;2023-04-24T00:01:28;17.47;;;13.53;;
15130;SDS011;7666;50.920;4.628;2023-04-24T00:04:16;17.40;;;12.80;;
15130;SDS011;7666;50.920;4.628;2023-04-24T00:07:02;17.67;;;12.83;;
15130;SDS011;7666;50.920;4.628;2023-04-24T00:09:48;17.47;;;13.27;;
15130;SDS011;7666;50.920;4.628;2023-04-24T00:12:34;17.73;;;12.80;;
15130;SDS011;7666;50.920;4.628;2023-04-24T00:15:21;21.13;;;13.53;;
15130;SDS011;7666;50.920;4.628;2023-04-24T00:18:07;18.73;;;13.93;;
15130;SDS011;7666;50.920;4.628;2023-04-24T00:20:53;18.60;;;12.93;;
15130;SDS011;7666;50.920;4.628;2023-04-24T00:23:39;22.37;;;14.30;;
15130;SDS011;7666;50.920;4.628;2023-04-24T00:26:25;21.67;;;13.47;;
15130;SDS011;7666;50.920;4.628;2023-04-24T00:29:11;17.37;;;13.40;;
15130;SDS011;7666;50.920;4.628;2023-04-24T00:31:57;18.10;;;12.93;;
15130;SDS011;7666;50.920;4.628;2023-04-24T00:34:43;20.03;;;13.07;;
15130;SDS011;7666;50.920;4.628;2023-04-24T00:37:29;19.40;;;12.27;;
15130;SDS011;7666;50.920;4.628;2023-04-24T00:40:15;17.73;;;12.67;;
15130;SDS011;7666;50.920;4.628;2023-04-24T00:43:01;16.97;;;13.50;;
15130;SDS011;7666;50.920;4.628;2023-04-24T00:45:47;20.60;;;14.23;;
15130;SDS011;7666;50.920;4.628;2023-04-24T00:48:33;17.37;;;12.97;;
15130;SDS011;7666;50.920;4.628;2023-04-24T00:51:20;20.50;;;13.37;;
15130;SDS011;7666;50.920;4.628;2023-04-24T00:54:06;15.73;;;12.70;;
15130;SDS011;7666;50.920;4.628;2023-04-24T00:56:52;17.80;;;14.13;;
15130;SDS011;7666;50.920;4.628;2023-04-24T00:59:38;16.13;;;13.07;;
15130;SDS011;7666;50.920;4.628;2023-04-24T01:02:26;19.53;;;13.33;;
15130;SDS011;7666;50.920;4.628;2023-04-24T01:05:12;19.70;;;13.60;;
15130;SDS011;7666;50.920;4.628;2023-04-24T01:08:00;19.17;;;13.40;;
15130;SDS011;7666;50.920;4.628;2023-04-24T01:10:48;18.53;;;14.07;;
15130;SDS011;7666;50.920;4.628;2023-04-24T01:13:36;18.83;;;13.90;;
15130;SDS011;7666;50.920;4.628;2023-04-24T01:16:22;21.33;;;12.93;;
15130;SDS011;7666;50.920;4.628;2023-04-24T01:19:08;20.23;;;14.30;;
15130;SDS011;7666;50.920;4.628;2023-04-24T01:21:57;18.60;;;13.40;;
15130;SDS011;7666;50.920;4.628;2023-04-24T01:24:44;22.27;;;13.57;;
15130;SDS011;7666;50.920;4.628;2023-04-24T01:27:30;18.40;;;13.03;;
15130;SDS011;7666;50.920;4.628;2023-04-24T01:30:16;15.67;;;13.13;;
15130;SDS011;7666;50.920;4.628;2023-04-24T01:33:02;16.20;;;13.13;;
15130;SDS011;7666;50.920;4.628;2023-04-24T01:35:49;19.47;;;12.93;;
15130;SDS011;7666;50.920;4.628;2023-04-24T01:38:35;17.00;;;13.07;;
15130;SDS011;7666;50.920;4.628;2023-04-24T01:41:21;18.67;;;13.47;;
15130;SDS011;7666;50.920;4.628;2023-04-24T01:44:08;16.07;;;12.87;;
15130;SDS011;7666;50.920;4.628;2023-04-24T01:46:55;14.07;;;12.40;;
15130;SDS011;7666;50.920;4.628;2023-04-24T01:49:41;15.40;;;11.87;;
15130;SDS011;7666;50.920;4.628;2023-04-24T01:52:27;16.83;;;11.50;;
15130;SDS011;7666;50.920;4.628;2023-04-24T01:55:16;13.57;;;11.40;;
15130;SDS011;7666;50.920;4.628;2023-04-24T01:58:02;16.00;;;11.20;;
15130;SDS011;7666;50.920;4.628;2023-04-24T02:00:48;12.67;;;10.50;;
15130;SDS011;7666;50.920;4.628;2023-04-24T02:03:34;11.53;;;10.20;;
15130;SDS011;7666;50.920;4.628;2023-04-24T02:06:20;12.13;;;9.23;;
15130;SDS011;7666;50.920;4.628;2023-04-24T02:09:07;13.07;;;10.43;;
15130;SDS011;7666;50.920;4.628;2023-04-24T02:11:53;13.50;;;10.40;;
15130;SDS011;7666;50.920;4.628;2023-04-24T02:14:39;10.27;;;9.00;;
15130;SDS011;7666;50.920;4.628;2023-04-24T02:17:25;13.53;;;10.23;;
15130;SDS011;7666;50.920;4.628;2023-04-24T02:20:11;12.47;;;10.23;;
15130;SDS011;7666;50.920;4.628;2023-04-24T02:22:57;12.90;;;11.13;;
15130;SDS011;7666;50.920;4.628;2023-04-24T02:25:43;16.77;;;11.40;;
15130;SDS011;7666;50.920;4.628;2023-04-24T02:28:29;13.57;;;10.87;;
15130;SDS011;7666;50.920;4.628;2023-04-24T02:31:15;13.80;;;10.93;;
15130;SDS011;7666;50.920;4.628;2023-04-24T02:34:01;11.90;;;10.70;;
15130;SDS011;7666;50.920;4.628;2023-04-24T02:36:47;15.03;;;11.27;;
15130;SDS011;7666;50.920;4.628;2023-04-24T02:39:34;13.63;;;11.27;;
15130;SDS011;7666;50.920;4.628;2023-04-24T02:42:20;12.97;;;11.73;;
15130;SDS011;7666;50.920;4.628;2023-04-24T02:45:06;13.10;;;11.70;;
15130;SDS011;7666;50.920;4.628;2023-04-24T02:47:52;15.57;;;12.00;;
15130;SDS011;7666;50.920;4.628;2023-04-24T02:50:38;13.80;;;11.67;;
15130;SDS011;7666;50.920;4.628;2023-04-24T02:53:24;16.23;;;12.07;;
15130;SDS011;7666;50.920;4.628;2023-04-24T02:56:10;13.70;;;12.23;;
15130;SDS011;7666;50.920;4.628;2023-04-24T02:58:57;14.20;;;11.60;;
15130;SDS011;7666;50.920;4.628;2023-04-24T03:01:43;14.20;;;12.20;;
15130;SDS011;7666;50.920;4.628;2023-04-24T03:04:29;15.03;;;13.50;;
15130;SDS011;7666;50.920;4.628;2023-04-24T03:07:15;14.77;;;12.33;;
15130;SDS011;7666;50.920;4.628;2023-04-24T03:10:01;15.67;;;12.00;;
15130;SDS011;7666;50.920;4.628;2023-04-24T03:12:47;15.60;;;12.50;;
15130;SDS011;7666;50.920;4.628;2023-04-24T03:15:34;14.57;;;12.77;;
15130;SDS011;7666;50.920;4.628;2023-04-24T03:18:20;14.13;;;12.70;;
15130;SDS011;7666;50.920;4.628;2023-04-24T03:21:06;14.53;;;13.10;;
15130;SDS011;7666;50.920;4.628;2023-04-24T03:23:52;13.23;;;11.83;;
15130;SDS011;7666;50.920;4.628;2023-04-24T03:26:38;14.07;;;11.27;;
15130;SDS011;7666;50.920;4.628;2023-04-24T03:29:24;14.33;;;11.70;;
15130;SDS011;7666;50.920;4.628;2023-04-24T03:32:10;15.60;;;10.93;;
15130;SDS011;7666;50.920;4.628;2023-04-24T03:34:56;11.23;;;10.07;;
15130;SDS011;7666;50.920;4.628;2023-04-24T03:37:42;11.70;;;9.87;;
15130;SDS011;7666;50.920;4.628;2023-04-24T03:40:28;10.70;;;9.30;;
15130;SDS011;7666;50.920;4.628;2023-04-24T03:43:14;12.20;;;9.47;;
15130;SDS011;7666;50.920;4.628;2023-04-24T03:46:01;10.03;;;9.00;;
15130;SDS011;7666;50.920;4.628;2023-04-24T03:48:47;14.23;;;9.63;;
15130;SDS011;7666;50.920;4.628;2023-04-24T03:51:33;11.20;;;9.03;;
15130;SDS011;7666;50.920;4.628;2023-04-24T03:54:19;9.27;;;8.37;;
15130;SDS011;7666;50.920;4.628;2023-04-24T03:57:05;11.03;;;9.03;;
15130;SDS011;7666;50.920;4.628;2023-04-24T03:59:51;10.60;;;8.50;;
15130;SDS011;7666;50.920;4.628;2023-04-24T04:02:38;8.57;;;7.47;;
15130;SDS011;7666;50.920;4.628;2023-04-24T04:05:24;7.97;;;7.17;;
15130;SDS011;7666;50.920;4.628;2023-04-24T04:08:10;9.67;;;6.80;;
15130;SDS011;7666;50.920;4.628;2023-04-24T04:10:56;8.53;;;7.07;;
15130;SDS011;7666;50.920;4.628;2023-04-24T04:13:42;9.33;;;7.27;;
15130;SDS011;7666;50.920;4.628;2023-04-24T04:16:28;7.87;;;7.07;;
15130;SDS011;7666;50.920;4.628;2023-04-24T04:19:15;11.50;;;7.70;;
15130;SDS011;7666;50.920;4.628;2023-04-24T04:22:01;8.33;;;6.90;;
15130;SDS011;7666;50.920;4.628;2023-04-24T04:24:47;7.50;;;6.67;;
15130;SDS011;7666;50.920;4.628;2023-04-24T04:27:33;7.77;;;6.73;;
15130;SDS011;7666;50.920;4.628;2023-04-24T04:30:19;7.57;;;6.80;;
15130;SDS011;7666;50.920;4.628;2023-04-24T04:33:06;9.17;;;6.70;;
15130;SDS011;7666;50.920;4.628;2023-04-24T04:35:53;8.87;;;6.47;;
15130;SDS011;7666;50.920;4.628;2023-04-24T04:38:41;7.70;;;6.40;;
15130;SDS011;7666;50.920;4.628;2023-04-24T04:41:28;6.70;;;5.97;;
15130;SDS011;7666;50.920;4.628;2023-04-24T04:44:14;8.70;;;6.70;;
15130;SDS011;7666;50.920;4.628;2023-04-24T04:47:00;6.17;;;5.50;;
15130;SDS011;7666;50.920;4.628;2023-04-24T04:49:49;5.83;;;5.23;;
15130;SDS011;7666;50.920;4.628;2023-04-24T04:52:36;7.93;;;5.70;;
15130;SDS011;7666;50.920;4.628;2023-04-24T04:55:22;6.73;;;5.80;;
15130;SDS011;7666;50.920;4.628;2023-04-24T04:58:08;9.57;;;6.60;;
15130;SDS011;7666;50.920;4.628;2023-04-24T05:00:54;9.07;;;7.37;;
15130;SDS011;7666;50.920;4.628;2023-04-24T05:03:42;8.73;;;7.47;;
15130;SDS011;7666;50.920;4.628;2023-04-24T05:06:28;9.83;;;8.80;;
15130;SDS011;7666;50.920;4.628;2023-04-24T05:09:16;11.00;;;9.47;;
15130;SDS011;7666;50.920;4.628;2023-04-24T05:12:02;12.73;;;10.30;;
15130;SDS011;7666;50.920;4.628;2023-04-24T05:14:48;15.03;;;11.53;;
15130;SDS011;7666;50.920;4.628;2023-04-24T05:17:35;13.77;;;11.63;;
15130;SDS011;7666;50.920;4.628;2023-04-24T05:20:21;13.83;;;11.70;;
15130;SDS011;7666;50.920;4.628;2023-04-24T05:23:07;15.17;;;11.70;;
15130;SDS011;7666;50.920;4.628;2023-04-24T05:25:53;15.40;;;10.93;;
15130;SDS011;7666;50.920;4.628;2023-04-24T05:28:39;15.07;;;10.87;;
15130;SDS011;7666;50.920;4.628;2023-04-24T05:31:26;12.53;;;10.53;;
15130;SDS011;7666;50.920;4.628;2023-04-24T05:34:12;12.13;;;9.97;;
15130;SDS011;7666;50.920;4.628;2023-04-24T05:36:58;13.40;;;10.37;;
15130;SDS011;7666;50.920;4.628;2023-04-24T05:39:44;13.33;;;10.20;;
15130;SDS011;7666;50.920;4.628;2023-04-24T05:42:30;13.93;;;10.43;;
15130;SDS011;7666;50.920;4.628;2023-04-24T05:45:16;12.10;;;10.10;;
15130;SDS011;7666;50.920;4.628;2023-04-24T05:48:02;12.33;;;10.27;;
15130;SDS011;7666;50.920;4.628;2023-04-24T05:50:49;13.43;;;10.83;;
15130;SDS011;7666;50.920;4.628;2023-04-24T05:53:35;15.00;;;11.07;;
15130;SDS011;7666;50.920;4.628;2023-04-24T05:56:21;13.53;;;9.87;;
15130;SDS011;7666;50.920;4.628;2023-04-24T05:59:07;12.40;;;9.80;;
15130;SDS011;7666;50.920;4.628;2023-04-24T06:01:54;12.67;;;10.07;;
15130;SDS011;7666;50.920;4.628;2023-04-24T06:04:40;13.43;;;11.40;;
15130;SDS011;7666;50.920;4.628;2023-04-24T06:07:26;14.60;;;10.93;;
15130;SDS011;7666;50.920;4.628;2023-04-24T06:10:12;14.63;;;10.77;;
15130;SDS011;7666;50.920;4.628;2023-04-24T06:12:59;15.00;;;11.27;;
15130;SDS011;7666;50.920;4.628;2023-04-24T06:15:45;16.23;;;11.60;;
15130;SDS011;7666;50.920;4.628;2023-04-24T06:18:31;16.40;;;11.57;;
15130;SDS011;7666;50.920;4.628;2023-04-24T06:21:17;15.00;;;12.10;;
15130;SDS011;7666;50.920;4.628;2023-04-24T06:24:03;16.00;;;12.03;;
15130;SDS011;7666;50.920;4.628;2023-04-24T06:26:52;17.73;;;12.90;;
15130;SDS011;7666;50.920;4.628;2023-04-24T06:29:38;18.83;;;14.53;;
15130;SDS011;7666;50.920;4.628;2023-04-24T06:32:24;17.77;;;13.43;;
15130;SDS011;7666;50.920;4.628;2023-04-24T06:35:11;17.87;;;13.80;;
15130;SDS011;7666;50.920;4.628;2023-04-24T06:37:57;20.40;;;14.30;;
15130;SDS011;7666;50.920;4.628;2023-04-24T06:40:43;17.80;;;13.63;;
15130;SDS011;7666;50.920;4.628;2023-04-24T06:43:29;16.63;;;14.37;;
15130;SDS011;7666;50.920;4.628;2023-04-24T06:46:16;22.10;;;13.80;;
15130;SDS011;7666;50.920;4.628;2023-04-24T06:49:02;19.10;;;14.17;;
15130;SDS011;7666;50.920;4.628;2023-04-24T06:51:48;21.30;;;14.43;;
15130;SDS011;7666;50.920;4.628;2023-04-24T06:54:34;15.57;;;13.77;;
15130;SDS011;7666;50.920;4.628;2023-04-24T06:57:20;19.90;;;14.63;;
15130;SDS011;7666;50.920;4.628;2023-04-24T07:00:06;19.70;;;15.57;;
15130;SDS011;7666;50.920;4.628;2023-04-24T07:02:54;22.30;;;15.50;;
15130;SDS011;7666;50.920;4.628;2023-04-24T07:05:43;21.43;;;16.40;;
15130;SDS011;7666;50.920;4.628;2023-04-24T07:08:33;22.97;;;16.17;;
15130;SDS011;7666;50.920;4.628;2023-04-24T07:11:19;24.80;;;17.07;;
15130;SDS011;7666;50.920;4.628;2023-04-24T07:14:05;20.60;;;16.47;;
15130;SDS011;7666;50.920;4.628;2023-04-24T07:16:51;24.43;;;16.50;;
15130;SDS011;7666;50.920;4.628;2023-04-24T07:19:37;21.27;;;16.30;;
15130;SDS011;7666;50.920;4.628;2023-04-24T07:22:23;21.80;;;15.83;;
15130;SDS011;7666;50.920;4.628;2023-04-24T07:25:10;20.27;;;15.50;;
15130;SDS011;7666;50.920;4.628;2023-04-24T07:27:56;20.23;;;14.67;;
15130;SDS011;7666;50.920;4.628;2023-04-24T07:30:42;23.80;;;16.17;;
15130;SDS011;7666;50.920;4.628;2023-04-24T07:33:28;18.03;;;15.33;;
15130;SDS011;7666;50.920;4.628;2023-04-24T07:36:14;22.00;;;15.20;;
15130;SDS011;7666;50.920;4.628;2023-04-24T07:39:04;19.47;;;14.97;;
15130;SDS011;7666;50.920;4.628;2023-04-24T07:41:51;22.53;;;14.80;;
15130;SDS011;7666;50.920;4.628;2023-04-24T07:44:37;20.50;;;15.70;;
15130;SDS011;7666;50.920;4.628;2023-04-24T07:47:23;23.30;;;15.00;;
15130;SDS011;7666;50.920;4.628;2023-04-24T07:50:09;21.27;;;15.53;;
15130;SDS011;7666;50.920;4.628;2023-04-24T07:52:55;22.37;;;15.70;;
15130;SDS011;7666;50.920;4.628;2023-04-24T07:55:41;22.80;;;16.17;;
15130;SDS011;7666;50.920;4.628;2023-04-24T07:58:27;22.13;;;13.43;;
15130;SDS011;7666;50.920;4.628;2023-04-24T08:01:13;17.17;;;13.73;;
15130;SDS011;7666;50.920;4.628;2023-04-24T08:03:59;19.53;;;14.03;;
15130;SDS011;7666;50.920;4.628;2023-04-24T08:06:46;20.03;;;13.30;;
15130;SDS011;7666;50.920;4.628;2023-04-24T08:09:33;16.60;;;12.50;;
15130;SDS011;7666;50.920;4.628;2023-04-24T08:12:19;21.20;;;12.20;;
15130;SDS011;7666;50.920;4.628;2023-04-24T08:15:05;18.70;;;11.37;;
15130;SDS011;7666;50.920;4.628;2023-04-24T08:17:51;13.63;;;10.40;;
15130;SDS011;7666;50.920;4.628;2023-04-24T08:20:37;12.20;;;8.93;;
15130;SDS011;7666;50.920;4.628;2023-04-24T08:23:24;13.10;;;8.10;;
15130;SDS011;7666;50.920;4.628;2023-04-24T08:26:10;12.67;;;7.10;;
15130;SDS011;7666;50.920;4.628;2023-04-24T08:28:56;10.57;;;6.50;;
15130;SDS011;7666;50.920;4.628;2023-04-24T08:31:42;12.10;;;6.27;;
15130;SDS011;7666;50.920;4.628;2023-04-24T08:34:28;12.87;;;6.90;;
15130;SDS011;7666;50.920;4.628;2023-04-24T08:37:14;11.30;;;7.03;;
15130;SDS011;7666;50.920;4.628;2023-04-24T08:40:01;14.27;;;7.70;;
15130;SDS011;7666;50.920;4.628;2023-04-24T08:42:52;15.03;;;7.80;;
15130;SDS011;7666;50.920;4.628;2023-04-24T08:45:40;19.17;;;8.63;;
15130;SDS011;7666;50.920;4.628;2023-04-24T08:48:26;11.83;;;7.63;;
15130;SDS011;7666;50.920;4.628;2023-04-24T08:51:12;15.63;;;8.23;;
15130;SDS011;7666;50.920;4.628;2023-04-24T08:53:58;13.80;;;7.93;;
15130;SDS011;7666;50.920;4.628;2023-04-24T08:56:46;14.23;;;7.47;;
15130;SDS011;7666;50.920;4.628;2023-04-24T08:59:34;12.97;;;6.27;;
15130;SDS011;7666;50.920;4.628;2023-04-24T09:02:21;11.27;;;5.83;;
15130;SDS011;7666;50.920;4.628;2023-04-24T09:05:08;13.67;;;5.70;;
15130;SDS011;7666;50.920;4.628;2023-04-24T09:07:56;14.07;;;6.07;;
15130;SDS011;7666;50.920;4.628;2023-04-24T09:10:42;14.97;;;5.93;;
15130;SDS011;7666;50.920;4.628;2023-04-24T09:13:28;10.07;;;6.10;;
15130;SDS011;7666;50.920;4.628;2023-04-24T09:16:15;15.30;;;6.43;;
15130;SDS011;7666;50.920;4.628;2023-04-24T09:19:02;13.97;;;6.73;;
15130;SDS011;7666;50.920;4.628;2023-04-24T09:21:48;15.33;;;6.77;;
15130;SDS011;7666;50.920;4.628;2023-04-24T09:24:34;10.90;;;6.10;;
15130;SDS011;7666;50.920;4.628;2023-04-24T09:27:22;12.43;;;6.33;;
15130;SDS011;7666;50.920;4.628;2023-04-24T09:30:09;11.67;;;5.83;;
15130;SDS011;7666;50.920;4.628;2023-04-24T09:33:09;8.60;;;4.77;;
15130;SDS011;7666;50.920;4.628;2023-04-24T09:35:56;11.13;;;5.07;;
15130;SDS011;7666;50.920;4.628;2023-04-24T09:38:42;10.63;;;5.33;;
15130;SDS011;7666;50.920;4.628;2023-04-24T09:41:28;15.00;;;5.27;;
15130;SDS011;7666;50.920;4.628;2023-04-24T09:44:15;10.23;;;5.27;;
15130;SDS011;7666;50.920;4.628;2023-04-24T09:47:02;11.10;;;4.80;;
15130;SDS011;7666;50.920;4.628;2023-04-24T09:49:57;10.57;;;4.87;;
15130;SDS011;7666;50.920;4.628;2023-04-24T09:52:44;9.67;;;4.40;;
15130;SDS011;7666;50.920;4.628;2023-04-24T09:55:31;9.27;;;4.30;;
15130;SDS011;7666;50.920;4.628;2023-04-24T09:58:17;10.33;;;4.00;;
15130;SDS011;7666;50.920;4.628;2023-04-24T10:01:09;6.27;;;3.70;;
15130;SDS011;7666;50.920;4.628;2023-04-24T10:03:55;5.37;;;3.10;;
15130;SDS011;7666;50.920;4.628;2023-04-24T10:06:41;6.63;;;3.03;;
15130;SDS011;7666;50.920;4.628;2023-04-24T10:09:28;6.90;;;3.10;;
15130;SDS011;7666;50.920;4.628;2023-04-24T10:12:14;5.37;;;2.87;;
15130;SDS011;7666;50.920;4.628;2023-04-24T10:15:01;11.60;;;3.77;;
15130;SDS011;7666;50.920;4.628;2023-04-24T10:17:49;8.63;;;3.80;;
15130;SDS011;7666;50.920;4.628;2023-04-24T10:20:39;7.37;;;3.50;;
15130;SDS011;7666;50.920;4.628;2023-04-24T10:23:25;7.73;;;4.03;;
15130;SDS011;7666;50.920;4.628;2023-04-24T10:26:15;9.73;;;4.20;;
15130;SDS011;7666;50.920;4.628;2023-04-24T10:29:03;6.90;;;4.00;;
15130;SDS011;7666;50.920;4.628;2023-04-24T10:31:55;8.37;;;4.07;;
15130;SDS011;7666;50.920;4.628;2023-04-24T10:34:40;8.50;;;4.30;;
15130;SDS011;7666;50.920;4.628;2023-04-24T10:37:27;5.87;;;3.57;;
15130;SDS011;7666;50.920;4.628;2023-04-24T10:40:17;8.47;;;3.63;;
15130;SDS011;7666;50.920;4.628;2023-04-24T10:43:05;7.77;;;3.80;;
15130;SDS011;7666;50.920;4.628;2023-04-24T10:46:00;7.20;;;3.77;;
15130;SDS011;7666;50.920;4.628;2023-04-24T10:48:56;6.80;;;3.30;;
15130;SDS011;7666;50.920;4.628;2023-04-24T10:51:50;6.53;;;4.13;;
15130;SDS011;7666;50.920;4.628;2023-04-24T10:54:42;5.77;;;3.00;;
15130;SDS011;7666;50.920;4.628;2023-04-24T10:57:30;7.07;;;3.33;;
15130;SDS011;7666;50.920;4.628;2023-04-24T11:00:19;7.87;;;3.33;;
15130;SDS011;7666;50.920;4.628;2023-04-24T11:03:06;7.90;;;3.80;;
15130;SDS011;7666;50.920;4.628;2023-04-24T11:06:08;7.70;;;3.57;;
15130;SDS011;7666;50.920;4.628;2023-04-24T11:08:58;6.27;;;3.20;;
15130;SDS011;7666;50.920;4.628;2023-04-24T11:12:11;6.67;;;3.60;;
15130;SDS011;7666;50.920;4.628;2023-04-24T11:17:46;7.23;;;3.90;;
15130;SDS011;7666;50.920;4.628;2023-04-24T11:20:32;6.37;;;3.57;;
15130;SDS011;7666;50.920;4.628;2023-04-24T11:23:18;7.83;;;3.80;;
15130;SDS011;7666;50.920;4.628;2023-04-24T11:26:11;6.63;;;3.30;;
15130;SDS011;7666;50.920;4.628;2023-04-24T11:29:08;8.70;;;3.73;;
15130;SDS011;7666;50.920;4.628;2023-04-24T11:31:54;6.53;;;3.17;;
15130;SDS011;7666;50.920;4.628;2023-04-24T11:34:45;8.20;;;3.97;;
15130;SDS011;7666;50.920;4.628;2023-04-24T11:37:38;6.83;;;3.77;;
15130;SDS011;7666;50.920;4.628;2023-04-24T11:40:26;8.73;;;3.63;;
15130;SDS011;7666;50.920;4.628;2023-04-24T11:43:12;6.77;;;3.80;;
15130;SDS011;7666;50.920;4.628;2023-04-24T11:46:00;7.10;;;4.00;;
15130;SDS011;7666;50.920;4.628;2023-04-24T11:48:46;4.73;;;3.43;;
15130;SDS011;7666;50.920;4.628;2023-04-24T11:51:32;7.37;;;4.00;;
15130;SDS011;7666;50.920;4.628;2023-04-24T11:54:19;7.03;;;3.87;;
15130;SDS011;7666;50.920;4.628;2023-04-24T11:57:06;7.00;;;3.83;;
15130;SDS011;7666;50.920;4.628;2023-04-24T11:59:52;5.40;;;3.83;;
15130;SDS011;7666;50.920;4.628;2023-04-24T12:02:38;7.47;;;4.50;;
15130;SDS011;7666;50.920;4.628;2023-04-24T12:05:25;6.83;;;4.70;;
15130;SDS011;7666;50.920;4.628;2023-04-24T12:08:12;7.27;;;4.07;;
15130;SDS011;7666;50.920;4.628;2023-04-24T12:11:16;9.03;;;4.40;;
15130;SDS011;7666;50.920;4.628;2023-04-24T12:14:10;7.40;;;4.00;;
15130;SDS011;7666;50.920;4.628;2023-04-24T12:16:56;6.57;;;3.87;;
15130;SDS011;7666;50.920;4.628;2023-04-24T12:19:48;6.70;;;3.80;;
15130;SDS011;7666;50.920;4.628;2023-04-24T12:22:42;6.80;;;3.80;;
15130;SDS011;7666;50.920;4.628;2023-04-24T12:25:31;5.70;;;3.70;;
15130;SDS011;7666;50.920;4.628;2023-04-24T12:28:17;7.27;;;4.20;;
15130;SDS011;7666;50.920;4.628;2023-04-24T12:31:04;9.03;;;4.07;;
15130;SDS011;7666;50.920;4.628;2023-04-24T12:33:51;6.20;;;4.20;;
15130;SDS011;7666;50.920;4.628;2023-04-24T12:36:37;8.00;;;3.83;;
15130;SDS011;7666;50.920;4.628;2023-04-24T12:39:23;6.23;;;4.10;;
15130;SDS011;7666;50.920;4.628;2023-04-24T12:42:13;8.30;;;4.20;;
15130;SDS011;7666;50.920;4.628;2023-04-24T12:45:00;7.80;;;4.20;;
15130;SDS011;7666;50.920;4.628;2023-04-24T12:47:48;8.13;;;4.43;;
15130;SDS011;7666;50.920;4.628;2023-04-24T12:50:34;12.37;;;4.57;;
15130;SDS011;7666;50.920;4.628;2023-04-24T12:53:20;6.87;;;4.00;;
15130;SDS011;7666;50.920;4.628;2023-04-24T12:56:06;5.17;;;4.10;;
15130;SDS011;7666;50.920;4.628;2023-04-24T12:58:52;7.83;;;4.60;;
15130;SDS011;7666;50.920;4.628;2023-04-24T13:01:38;5.20;;;3.77;;
15130;SDS011;7666;50.920;4.628;2023-04-24T13:04:24;6.43;;;3.70;;
15130;SDS011;7666;50.920;4.628;2023-04-24T13:07:10;9.23;;;3.77;;
15130;SDS011;7666;50.920;4.628;2023-04-24T13:09:56;6.40;;;3.37;;
15130;SDS011;7666;50.920;4.628;2023-04-24T13:12:43;6.23;;;3.67;;
15130;SDS011;7666;50.920;4.628;2023-04-24T13:15:31;6.47;;;3.80;;
15130;SDS011;7666;50.920;4.628;2023-04-24T13:18:17;5.77;;;3.70;;
15130;SDS011;7666;50.920;4.628;2023-04-24T13:21:03;6.23;;;3.30;;
15130;SDS011;7666;50.920;4.628;2023-04-24T13:23:49;5.90;;;3.73;;
15130;SDS011;7666;50.920;4.628;2023-04-24T13:26:35;7.43;;;3.20;;
15130;SDS011;7666;50.920;4.628;2023-04-24T13:29:21;5.77;;;3.53;;
15130;SDS011;7666;50.920;4.628;2023-04-24T13:32:07;5.13;;;3.30;;
15130;SDS011;7666;50.920;4.628;2023-04-24T13:34:54;5.77;;;2.60;;
15130;SDS011;7666;50.920;4.628;2023-04-24T13:37:40;4.63;;;2.90;;
15130;SDS011;7666;50.920;4.628;2023-04-24T13:40:26;9.67;;;3.60;;
15130;SDS011;7666;50.920;4.628;2023-04-24T13:43:13;8.97;;;3.53;;
15130;SDS011;7666;50.920;4.628;2023-04-24T13:45:59;5.43;;;3.37;;
15130;SDS011;7666;50.920;4.628;2023-04-24T13:48:47;4.07;;;2.80;;
15130;SDS011;7666;50.920;4.628;2023-04-24T13:51:33;6.30;;;3.00;;
15130;SDS011;7666;50.920;4.628;2023-04-24T13:54:19;5.77;;;2.80;;
15130;SDS011;7666;50.920;4.628;2023-04-24T13:57:05;8.43;;;2.97;;
15130;SDS011;7666;50.920;4.628;2023-04-24T13:59:51;5.33;;;2.80;;
15130;SDS011;7666;50.920;4.628;2023-04-24T14:02:37;5.33;;;2.87;;
15130;SDS011;7666;50.920;4.628;2023-04-24T14:05:23;5.63;;;3.00;;
15130;SDS011;7666;50.920;4.628;2023-04-24T14:08:10;4.77;;;2.27;;
15130;SDS011;7666;50.920;4.628;2023-04-24T14:10:56;3.80;;;2.30;;
15130;SDS011;7666;50.920;4.628;2023-04-24T14:13:42;6.57;;;2.53;;
15130;SDS011;7666;50.920;4.628;2023-04-24T14:16:28;5.40;;;2.90;;
15130;SDS011;7666;50.920;4.628;2023-04-24T14:19:15;4.47;;;2.30;;
15130;SDS011;7666;50.920;4.628;2023-04-24T14:22:01;3.60;;;2.20;;
15130;SDS011;7666;50.920;4.628;2023-04-24T14:24:47;4.43;;;2.03;;
15130;SDS011;7666;50.920;4.628;2023-04-24T14:27:33;4.90;;;1.60;;
15130;SDS011;7666;50.920;4.628;2023-04-24T14:30:20;4.47;;;2.10;;
15130;SDS011;7666;50.920;4.628;2023-04-24T14:33:06;3.90;;;2.30;;
15130;SDS011;7666;50.920;4.628;2023-04-24T14:35:51;4.43;;;2.13;;
15130;SDS011;7666;50.920;4.628;2023-04-24T14:38:38;4.67;;;2.50;;
15130;SDS011;7666;50.920;4.628;2023-04-24T14:41:24;6.73;;;2.53;;
15130;SDS011;7666;50.920;4.628;2023-04-24T14:44:09;5.47;;;2.20;;
15130;SDS011;7666;50.920;4.628;2023-04-24T14:46:55;5.93;;;2.53;;
15130;SDS011;7666;50.920;4.628;2023-04-24T14:49:41;3.93;;;2.30;;
15130;SDS011;7666;50.920;4.628;2023-04-24T14:52:28;4.47;;;2.60;;
15130;SDS011;7666;50.920;4.628;2023-04-24T14:55:15;5.93;;;2.53;;
15130;SDS011;7666;50.920;4.628;2023-04-24T14:58:01;4.27;;;2.40;;
15130;SDS011;7666;50.920;4.628;2023-04-24T15:00:48;4.40;;;2.63;;
15130;SDS011;7666;50.920;4.628;2023-04-24T15:03:37;4.93;;;2.63;;
15130;SDS011;7666;50.920;4.628;2023-04-24T15:06:23;5.40;;;3.00;;
15130;SDS011;7666;50.920;4.628;2023-04-24T15:09:10;6.20;;;3.00;;
15130;SDS011;7666;50.920;4.628;2023-04-24T15:11:56;5.63;;;2.40;;
15130;SDS011;7666;50.920;4.628;2023-04-24T15:14:43;5.50;;;2.93;;
15130;SDS011;7666;50.920;4.628;2023-04-24T15:17:29;5.00;;;2.37;;
15130;SDS011;7666;50.920;4.628;2023-04-24T15:20:15;3.13;;;1.93;;
15130;SDS011;7666;50.920;4.628;2023-04-24T15:23:01;5.83;;;2.10;;
15130;SDS011;7666;50.920;4.628;2023-04-24T15:25:47;4.47;;;2.50;;
15130;SDS011;7666;50.920;4.628;2023-04-24T15:28:33;5.37;;;2.53;;
15130;SDS011;7666;50.920;4.628;2023-04-24T15:31:19;4.53;;;2.83;;
15130;SDS011;7666;50.920;4.628;2023-04-24T15:34:05;3.07;;;2.67;;
15130;SDS011;7666;50.920;4.628;2023-04-24T15:36:51;4.30;;;2.37;;
15130;SDS011;7666;50.920;4.628;2023-04-24T15:39:37;4.80;;;1.90;;
15130;SDS011;7666;50.920;4.628;2023-04-24T15:42:24;4.23;;;1.60;;
15130;SDS011;7666;50.920;4.628;2023-04-24T15:45:10;3.13;;;1.83;;
15130;SDS011;7666;50.920;4.628;2023-04-24T15:47:56;3.87;;;1.90;;
15130;SDS011;7666;50.920;4.628;2023-04-24T15:50:42;8.23;;;2.27;;
15130;SDS011;7666;50.920;4.628;2023-04-24T15:53:28;3.67;;;2.00;;
15130;SDS011;7666;50.920;4.628;2023-04-24T15:56:14;4.63;;;2.23;;
15130;SDS011;7666;50.920;4.628;2023-04-24T15:59:00;4.57;;;2.30;;
15130;SDS011;7666;50.920;4.628;2023-04-24T16:01:47;5.63;;;2.30;;
15130;SDS011;7666;50.920;4.628;2023-04-24T16:04:34;4.77;;;2.50;;
15130;SDS011;7666;50.920;4.628;2023-04-24T16:07:20;4.13;;;2.30;;
15130;SDS011;7666;50.920;4.628;2023-04-24T16:10:06;4.63;;;2.57;;
15130;SDS011;7666;50.920;4.628;2023-04-24T16:12:52;4.07;;;2.77;;
15130;SDS011;7666;50.920;4.628;2023-04-24T16:15:39;4.83;;;2.20;;
15130;SDS011;7666;50.920;4.628;2023-04-24T16:18:25;3.87;;;2.30;;
15130;SDS011;7666;50.920;4.628;2023-04-24T16:21:11;3.13;;;2.00;;
15130;SDS011;7666;50.920;4.628;2023-04-24T16:23:57;2.90;;;2.00;;
15130;SDS011;7666;50.920;4.628;2023-04-24T16:26:44;3.27;;;1.90;;
15130;SDS011;7666;50.920;4.628;2023-04-24T16:29:30;2.90;;;1.67;;
15130;SDS011;7666;50.920;4.628;2023-04-24T16:32:16;8.33;;;2.27;;
15130;SDS011;7666;50.920;4.628;2023-04-24T16:35:03;3.47;;;1.87;;
15130;SDS011;7666;50.920;4.628;2023-04-24T16:37:49;3.97;;;2.23;;
15130;SDS011;7666;50.920;4.628;2023-04-24T16:40:35;3.93;;;2.00;;
15130;SDS011;7666;50.920;4.628;2023-04-24T16:43:21;3.47;;;2.10;;
15130;SDS011;7666;50.920;4.628;2023-04-24T16:46:07;2.37;;;1.63;;
15130;SDS011;7666;50.920;4.628;2023-04-24T16:48:53;3.67;;;1.67;;